Time;durP1;ratioP1;P1;durP2;ratioP2;P2;SDS_P1;SDS_P2;PMS_P1;PMS_P2;Temp;Humidity;BMP_temperature;BMP_pressure;BME280_temperature;BME280_humidity;BME280_pressure;Samples;Min_cycle;Max_cycle;Signal;HPM_P1;HPM_P2
2022/05/05 00:01:40;;;;;;;2.23;1.33;;;11.50;98.00;;;;;;5012444;28;20458;-65
2022/05/05 00:04:07;;;;;;;2.97;1.70;;;11.50;98.00;;;;;;5011834;28;20458;-65
2022/05/05 00:06:34;;;;;;;4.33;1.80;;;11.50;98.00;;;;;;5012272;28;20487;-65
2022/05/05 00:09:01;;;;;;;2.03;1.70;;;11.50;98.00;;;;;;5011691;28;20460;-65
2022/05/05 00:14:27;;;;;;;2.40;2.27;;;11.70;98.00;;;;;;5012773;28;20850;-65
2022/05/05 00:16:58;;;;;;;2.30;1.80;;;11.90;98.00;;;;;;5015685;28;20494;-65
2022/05/05 00:19:26;;;;;;;1.87;1.77;;;12.00;98.00;;;;;;5015573;28;20466;-65
2022/05/05 00:21:53;;;;;;;3.07;2.03;;;11.90;98.00;;;;;;5015520;28;20463;-65
2022/05/05 00:24:21;;;;;;;1.97;1.90;;;11.80;98.00;;;;;;5015559;28;20465;-65
2022/05/05 00:26:48;;;;;;;1.80;1.33;;;11.70;98.00;;;;;;5014128;28;20946;-65
2022/05/05 00:29:17;;;;;;;1.80;1.70;;;11.60;98.00;;;;;;5015177;28;20476;-65
2022/05/05 00:31:44;;;;;;;3.30;2.30;;;11.50;98.00;;;;;;5015428;28;20497;-65
2022/05/05 00:34:11;;;;;;;2.17;1.80;;;11.50;98.00;;;;;;5015261;28;20465;-64
2022/05/05 00:36:40;;;;;;;2.50;1.73;;;11.60;98.00;;;;;;5015202;28;20457;-65
2022/05/05 00:39:08;;;;;;;1.57;1.30;;;11.50;98.00;;;;;;5014026;28;20508;-65
2022/05/05 00:41:36;;;;;;;2.00;1.90;;;11.60;98.00;;;;;;5015231;28;20463;-65
2022/05/05 00:44:04;;;;;;;2.60;2.23;;;11.60;98.00;;;;;;5015390;28;20809;-65
2022/05/05 00:46:33;;;;;;;1.70;1.40;;;11.60;98.00;;;;;;5015261;28;20477;-65
2022/05/05 00:49:00;;;;;;;2.70;2.00;;;11.60;98.00;;;;;;5015234;28;20467;-65
2022/05/05 00:51:28;;;;;;;4.70;2.03;;;11.50;98.00;;;;;;5014960;28;20462;-65
2022/05/05 00:53:56;;;;;;;1.60;1.53;;;11.60;98.00;;;;;;5015254;28;20470;-64
2022/05/05 00:56:24;;;;;;;3.30;2.10;;;11.60;98.00;;;;;;5015020;28;20468;-64
2022/05/05 00:58:54;;;;;;;1.80;1.77;;;11.50;98.00;;;;;;5015041;28;20852;-64
2022/05/05 01:01:22;;;;;;;1.90;1.30;;;11.50;98.00;;;;;;5014942;28;20463;-65
2022/05/05 01:03:51;;;;;;;1.93;1.70;;;11.70;98.00;;;;;;5015074;28;20808;-64
2022/05/05 01:06:19;;;;;;;1.60;1.33;;;11.80;98.00;;;;;;5014815;28;20542;-65
2022/05/05 01:08:57;;;;;;;2.57;2.00;;;12.10;98.00;;;;;;5014540;28;20461;-65
2022/05/05 01:11:24;;;;;;;1.20;1.20;;;12.20;98.00;;;;;;5014660;28;20513;-64
2022/05/05 01:13:51;;;;;;;2.60;2.20;;;12.20;98.00;;;;;;5014750;28;20469;-65
2022/05/05 01:16:19;;;;;;;4.37;2.90;;;12.30;98.00;;;;;;5014472;28;20464;-64
2022/05/05 01:18:46;;;;;;;2.70;2.30;;;12.40;98.00;;;;;;5014433;28;20495;-65
2022/05/05 01:21:14;;;;;;;1.73;1.63;;;12.40;98.00;;;;;;5014357;28;20684;-64
2022/05/05 01:23:43;;;;;;;1.93;1.90;;;12.30;98.00;;;;;;5014281;28;20459;-65
2022/05/05 01:28:57;;;;;;;1.93;1.87;;;12.00;98.00;;;;;;5014457;28;20489;-65
2022/05/05 01:31:24;;;;;;;14.40;2.50;;;11.80;98.00;;;;;;5012935;28;20571;-65
2022/05/05 01:33:51;;;;;;;1.87;1.73;;;11.70;98.00;;;;;;5014222;28;20460;-65
2022/05/05 01:36:18;;;;;;;2.07;1.83;;;11.60;98.00;;;;;;5012903;28;20461;-65
2022/05/05 01:38:46;;;;;;;3.73;2.23;;;11.60;98.00;;;;;;5014142;28;20498;-65
2022/05/05 01:41:15;;;;;;;2.07;1.90;;;11.60;98.00;;;;;;5013887;28;20453;-64
2022/05/05 01:43:45;;;;;;;2.10;1.73;;;11.70;98.00;;;;;;5013077;28;20467;-65
2022/05/05 01:46:13;;;;;;;1.87;1.50;;;11.70;98.00;;;;;;5014210;28;20899;-64
2022/05/05 01:48:42;;;;;;;2.13;1.97;;;11.70;98.00;;;;;;5012720;28;20458;-65
2022/05/05 01:51:09;;;;;;;3.50;2.57;;;11.70;98.00;;;;;;5014095;28;20826;-64
2022/05/05 01:53:37;;;;;;;3.20;1.93;;;11.80;98.00;;;;;;5013980;28;20460;-65
2022/05/05 01:56:11;;;;;;;2.53;2.27;;;12.00;98.00;;;;;;5013911;28;20556;-64
2022/05/05 01:58:38;;;;;;;3.70;2.33;;;12.00;98.00;;;;;;5013792;28;20490;-65
2022/05/05 02:01:06;;;;;;;1.40;1.40;;;12.10;98.00;;;;;;5013861;28;20461;-64
2022/05/05 02:03:33;;;;;;;10.73;2.17;;;12.10;98.00;;;;;;5013774;28;20556;-65
2022/05/05 02:06:00;;;;;;;3.10;1.57;;;12.00;98.00;;;;;;5013826;28;20825;-65
2022/05/05 02:08:28;;;;;;;3.63;1.77;;;12.10;98.00;;;;;;5013460;28;20995;-65
2022/05/05 02:10:55;;;;;;;1.93;1.80;;;12.10;98.00;;;;;;5013606;28;20703;-64
2022/05/05 02:13:24;;;;;;;2.33;1.67;;;12.00;98.00;;;;;;5013516;28;20931;-64
2022/05/05 02:15:51;;;;;;;2.40;2.10;;;11.90;98.00;;;;;;5013590;28;20471;-64
2022/05/05 02:18:22;;;;;;;2.47;2.03;;;11.80;98.00;;;;;;5013403;28;20517;-64
2022/05/05 02:20:49;;;;;;;2.50;1.93;;;11.70;98.00;;;;;;5012074;28;20462;-64
2022/05/05 02:23:16;;;;;;;2.83;1.83;;;11.60;98.00;;;;;;5013191;28;20472;-64
2022/05/05 02:25:44;;;;;;;2.27;2.07;;;11.60;98.00;;;;;;5012166;28;20463;-64
2022/05/05 02:28:11;;;;;;;1.97;1.57;;;11.50;98.00;;;;;;5013119;28;20541;-64
2022/05/05 02:30:41;;;;;;;2.77;1.53;;;11.50;98.00;;;;;;5013247;28;20459;-64
2022/05/05 02:33:08;;;;;;;4.00;2.20;;;11.40;98.00;;;;;;5011857;28;20989;-64
2022/05/05 02:35:35;;;;;;;1.67;1.40;;;11.40;98.00;;;;;;5013105;28;20457;-64
2022/05/05 02:40:46;;;;;;;4.60;1.83;;;11.30;98.00;;;;;;5012124;28;20832;-64
2022/05/05 02:43:13;;;;;;;3.33;1.70;;;11.40;98.00;;;;;;5011786;28;20549;-64
2022/05/05 02:45:42;;;;;;;2.63;2.50;;;11.60;98.00;;;;;;5013130;28;20455;-64
2022/05/05 02:48:09;;;;;;;1.60;1.50;;;11.60;98.00;;;;;;5012854;28;20519;-64
2022/05/05 02:50:36;;;;;;;1.83;1.53;;;11.60;98.00;;;;;;5012914;28;20466;-64
2022/05/05 02:54:47;;;;;;;1.83;1.57;;;11.60;98.00;;;;;;5012842;28;20869;-64
2022/05/05 02:55:50;;;;;;;2.07;1.47;;;11.70;98.00;;;;;;5012708;28;20468;-64
2022/05/05 02:58:19;;;;;;;1.90;1.53;;;11.70;98.00;;;;;;5012612;28;20489;-64
2022/05/05 03:00:48;;;;;;;2.60;1.93;;;11.80;98.00;;;;;;5012891;28;20965;-64
2022/05/05 03:03:18;;;;;;;1.80;1.70;;;12.00;98.00;;;;;;5012787;28;20470;-64
2022/05/05 03:05:45;;;;;;;4.23;2.33;;;11.90;98.00;;;;;;5012876;28;20462;-64
2022/05/05 03:08:16;;;;;;;2.03;1.57;;;12.00;98.00;;;;;;5011464;28;20470;-64
2022/05/05 03:10:43;;;;;;;1.97;1.60;;;11.80;98.00;;;;;;5011298;28;20463;-64
2022/05/05 03:13:10;;;;;;;2.00;1.90;;;11.70;98.00;;;;;;5011277;28;20821;-64
2022/05/05 03:15:38;;;;;;;1.60;1.40;;;11.70;98.00;;;;;;5012191;28;20453;-64
2022/05/05 03:18:06;;;;;;;2.47;1.70;;;11.60;98.00;;;;;;5011117;28;21150;-65
2022/05/05 03:20:33;;;;;;;3.23;2.17;;;11.60;98.00;;;;;;5012267;28;20537;-64
2022/05/05 03:23:00;;;;;;;1.97;1.90;;;11.50;98.00;;;;;;5012153;28;20466;-64
2022/05/05 03:25:27;;;;;;;2.83;2.00;;;11.40;98.00;;;;;;5012361;28;20953;-64
2022/05/05 03:27:54;;;;;;;3.00;2.20;;;11.30;98.00;;;;;;5012205;28;20470;-64
2022/05/05 03:30:21;;;;;;;3.20;2.00;;;11.30;98.00;;;;;;5012246;28;20586;-64
2022/05/05 03:32:49;;;;;;;1.80;1.50;;;11.30;98.00;;;;;;5012284;28;20844;-64
2022/05/05 03:35:17;;;;;;;2.03;1.70;;;11.40;98.00;;;;;;5012157;28;20551;-64
2022/05/05 03:37:44;;;;;;;2.63;1.87;;;11.30;98.00;;;;;;5012322;28;20489;-64
2022/05/05 03:40:12;;;;;;;2.70;1.73;;;11.30;98.00;;;;;;5012285;28;20784;-64
2022/05/05 03:42:39;;;;;;;2.47;1.50;;;11.20;98.00;;;;;;5012148;28;20457;-64
2022/05/05 03:45:07;;;;;;;1.90;1.50;;;11.10;98.00;;;;;;5012459;28;20947;-64
2022/05/05 03:47:34;;;;;;;2.33;2.13;;;11.00;98.00;;;;;;5012278;28;20549;-64
2022/05/05 03:50:01;;;;;;;1.30;1.30;;;11.00;98.00;;;;;;5014724;28;20464;-64
2022/05/05 03:52:30;;;;;;;1.63;1.60;;;11.00;98.00;;;;;;5016422;28;20455;-64
2022/05/05 03:54:59;;;;;;;2.80;1.93;;;10.90;98.00;;;;;;5016162;28;20458;-64
2022/05/05 03:57:26;;;;;;;2.27;2.00;;;10.90;98.00;;;;;;5015962;28;20455;-64
2022/05/05 03:59:53;;;;;;;1.93;1.47;;;10.90;98.00;;;;;;5016456;28;20524;-64
2022/05/05 04:02:21;;;;;;;1.63;1.60;;;10.80;98.00;;;;;;5016020;28;20811;-64
2022/05/05 04:04:49;;;;;;;1.83;1.50;;;10.90;98.00;;;;;;5014967;28;20469;-64
2022/05/05 04:07:16;;;;;;;3.10;2.50;;;11.00;98.00;;;;;;5016120;28;20465;-64
2022/05/05 04:09:44;;;;;;;1.93;1.90;;;11.00;98.00;;;;;;5015982;28;20464;-64
2022/05/05 04:12:13;;;;;;;3.00;2.20;;;10.90;98.00;;;;;;5015720;28;20465;-64
2022/05/05 04:14:40;;;;;;;2.27;1.70;;;10.90;98.00;;;;;;5015725;28;20462;-64
2022/05/05 04:17:07;;;;;;;2.17;1.70;;;10.90;98.00;;;;;;5014228;28;20463;-64
2022/05/05 04:19:34;;;;;;;1.50;1.47;;;10.90;98.00;;;;;;5015574;28;20851;-64
2022/05/05 04:22:01;;;;;;;1.97;1.73;;;11.20;98.00;;;;;;5014278;28;20506;-64
2022/05/05 04:24:29;;;;;;;1.80;1.70;;;11.10;98.00;;;;;;5015488;28;20451;-64
2022/05/05 04:26:57;;;;;;;2.63;1.87;;;11.10;98.00;;;;;;5015338;28;20465;-64
2022/05/05 04:29:29;;;;;;;2.90;1.60;;;11.10;98.00;;;;;;5015381;28;20472;-64
2022/05/05 04:31:56;;;;;;;1.70;1.60;;;11.00;98.00;;;;;;5015336;28;20822;-64
2022/05/05 04:34:23;;;;;;;2.27;2.07;;;11.20;98.00;;;;;;5014102;28;20465;-64
2022/05/05 04:36:50;;;;;;;1.90;1.70;;;11.30;98.00;;;;;;5015167;28;20856;-64
2022/05/05 04:39:17;;;;;;;2.23;1.90;;;11.40;98.00;;;;;;5015250;28;20494;-64
2022/05/05 04:41:44;;;;;;;2.03;1.30;;;11.30;98.00;;;;;;5015405;28;20886;-64
2022/05/05 04:44:13;;;;;;;2.73;2.00;;;11.40;98.00;;;;;;5015238;28;20459;-64
2022/05/05 04:46:40;;;;;;;1.30;1.30;;;11.70;98.00;;;;;;5015181;28;20462;-64
2022/05/05 04:49:08;;;;;;;2.43;2.13;;;11.70;98.00;;;;;;5015244;28;20481;-64
2022/05/05 04:51:35;;;;;;;2.60;1.87;;;11.60;98.00;;;;;;5015118;28;20453;-64
2022/05/05 04:54:02;;;;;;;1.30;1.20;;;11.50;98.00;;;;;;5014027;28;20463;-64
2022/05/05 04:56:29;;;;;;;4.07;2.53;;;11.40;98.00;;;;;;5013730;28;20539;-64
2022/05/05 04:58:57;;;;;;;2.43;2.17;;;11.50;98.00;;;;;;5015059;28;20819;-66
2022/05/05 05:01:25;;;;;;;2.83;1.97;;;11.30;98.00;;;;;;5013330;28;20457;-65
2022/05/05 05:03:52;;;;;;;3.07;2.17;;;11.30;98.00;;;;;;5015147;28;20461;-65
2022/05/05 05:06:19;;;;;;;3.30;2.00;;;11.20;98.00;;;;;;5013362;28;20473;-66
2022/05/05 05:08:47;;;;;;;1.80;1.67;;;11.10;98.00;;;;;;5015061;28;20460;-66
2022/05/05 05:11:14;;;;;;;2.07;1.77;;;11.10;98.00;;;;;;5014372;28;20602;-66
2022/05/05 05:13:41;;;;;;;3.50;1.80;;;11.20;98.00;;;;;;5014579;28;20461;-66
2022/05/05 05:16:10;;;;;;;2.17;1.80;;;11.30;98.00;;;;;;5014462;28;20483;-66
2022/05/05 05:18:38;;;;;;;2.20;2.00;;;11.50;98.00;;;;;;5014294;28;20858;-66
2022/05/05 05:21:05;;;;;;;2.23;1.73;;;11.60;98.00;;;;;;5014596;28;20464;-65
2022/05/05 05:23:33;;;;;;;2.70;2.27;;;11.60;98.00;;;;;;5014222;28;20468;-65
2022/05/05 05:26:00;;;;;;;1.57;1.50;;;11.60;98.00;;;;;;5014408;28;20456;-65
2022/05/05 05:28:27;;;;;;;1.97;1.90;;;11.60;98.00;;;;;;5013902;28;20468;-65
2022/05/05 05:30:57;;;;;;;1.60;1.50;;;11.70;98.00;;;;;;5013039;28;20524;-65
2022/05/05 05:33:24;;;;;;;3.73;1.80;;;11.90;98.00;;;;;;5014143;28;20967;-65
2022/05/05 05:35:53;;;;;;;3.23;2.37;;;11.90;98.00;;;;;;5014165;28;20465;-65
2022/05/05 05:38:20;;;;;;;1.70;1.60;;;11.90;98.00;;;;;;5013982;28;20485;-65
2022/05/05 05:40:48;;;;;;;3.37;2.23;;;11.90;98.00;;;;;;5014276;28;20504;-65
2022/05/05 05:43:16;;;;;;;2.40;1.80;;;12.00;98.00;;;;;;5014080;28;20502;-66
2022/05/05 05:45:44;;;;;;;2.17;1.67;;;12.10;98.00;;;;;;5014045;28;20494;-66
2022/05/05 05:48:11;;;;;;;7.10;2.27;;;12.30;98.00;;;;;;5012866;28;20466;-66
2022/05/05 05:50:38;;;;;;;2.90;1.70;;;12.30;98.00;;;;;;5014334;28;20456;-66
2022/05/05 05:53:07;;;;;;;3.30;1.93;;;12.30;98.00;;;;;;5014053;28;20469;-66
2022/05/05 05:55:34;;;;;;;3.03;1.90;;;12.30;98.00;;;;;;5014016;28;20460;-66
2022/05/05 05:58:01;;;;;;;4.43;2.70;;;12.20;98.00;;;;;;5014090;28;20457;-66
2022/05/05 06:00:28;;;;;;;1.77;1.60;;;12.20;98.00;;;;;;5013866;28;20501;-66
2022/05/05 06:05:54;;;;;;;3.60;2.23;;;12.40;98.00;;;;;;5011409;28;20873;-64
2022/05/05 06:08:23;;;;;;;2.33;1.90;;;12.50;98.00;;;;;;4995135;28;20514;-64
2022/05/05 06:10:50;;;;;;;3.33;1.73;;;12.50;98.00;;;;;;5011787;28;20990;-65
2022/05/05 06:13:17;;;;;;;1.67;1.60;;;12.50;98.00;;;;;;5011733;28;20465;-65
2022/05/05 06:15:44;;;;;;;1.60;1.50;;;12.40;98.00;;;;;;5013447;28;20456;-65
2022/05/05 06:18:11;;;;;;;2.03;1.33;;;12.50;98.00;;;;;;5013403;28;20465;-65
2022/05/05 06:20:38;;;;;;;7.13;1.63;;;12.50;98.00;;;;;;5013340;28;20956;-65
2022/05/05 06:23:06;;;;;;;2.23;1.93;;;12.60;98.00;;;;;;5013223;28;20466;-65
2022/05/05 06:25:35;;;;;;;2.80;2.03;;;12.70;98.00;;;;;;5013592;28;20467;-65
2022/05/05 06:28:04;;;;;;;2.83;2.33;;;12.60;98.00;;;;;;5013190;28;20464;-65
2022/05/05 06:30:31;;;;;;;2.20;1.70;;;12.60;98.00;;;;;;5012422;28;20454;-65
2022/05/05 06:32:58;;;;;;;2.17;1.50;;;12.60;98.00;;;;;;5012253;28;20478;-64
2022/05/05 06:35:25;;;;;;;3.00;2.00;;;12.70;98.00;;;;;;5012376;28;20461;-64
2022/05/05 06:37:52;;;;;;;1.70;1.60;;;12.80;98.00;;;;;;5012364;28;20874;-63
2022/05/05 06:40:20;;;;;;;1.30;1.23;;;12.60;98.00;;;;;;5012537;28;20492;-63
2022/05/05 06:42:49;;;;;;;3.00;2.10;;;12.70;98.00;;;;;;5027484;28;20965;-62
2022/05/05 06:45:16;;;;;;;2.07;1.70;;;13.30;98.00;;;;;;5012147;28;20547;-60
2022/05/05 06:47:43;;;;;;;1.80;1.77;;;13.80;98.00;;;;;;5012103;28;20471;-63
2022/05/05 06:50:12;;;;;;;4.20;2.13;;;14.30;98.00;;;;;;5011905;28;20463;-65
2022/05/05 06:52:39;;;;;;;1.93;1.60;;;14.80;98.00;;;;;;5011914;28;20976;-62
2022/05/05 06:55:08;;;;;;;3.53;2.53;;;15.30;98.00;;;;;;5011899;28;20450;-63
2022/05/05 06:57:35;;;;;;;2.27;2.10;;;15.70;98.00;;;;;;5012058;28;20466;-62
2022/05/05 07:00:04;;;;;;;1.80;1.80;;;15.60;98.00;;;;;;5011891;28;20488;-61
2022/05/05 07:02:31;;;;;;;4.00;2.80;;;15.90;98.00;;;;;;5012041;28;20459;-62
2022/05/05 07:07:43;;;;;;;3.20;2.20;;;16.40;98.00;;;;;;5012126;28;20867;-63
2022/05/05 07:12:55;;;;;;;4.87;2.70;;;16.10;98.00;;;;;;5012169;28;20960;-63
2022/05/05 07:15:23;;;;;;;3.50;2.60;;;15.80;98.00;;;;;;5012675;28;20462;-62
2022/05/05 07:17:51;;;;;;;4.80;2.97;;;15.70;98.00;;;;;;5012277;28;20465;-64
2022/05/05 07:20:18;;;;;;;3.13;2.30;;;15.50;98.00;;;;;;5008814;28;20491;-63
2022/05/05 07:22:46;;;;;;;2.63;2.20;;;15.20;98.00;;;;;;5009433;28;20473;-62
2022/05/05 07:25:14;;;;;;;3.23;2.03;;;15.10;98.00;;;;;;5006813;28;20461;-63
2022/05/05 07:27:44;;;;;;;3.40;2.33;;;15.10;98.00;;;;;;5009560;28;20470;-63
2022/05/05 07:30:13;;;;;;;3.40;2.23;;;15.20;98.00;;;;;;5009321;28;20463;-63
2022/05/05 07:32:44;;;;;;;3.53;2.53;;;15.30;98.00;;;;;;5009234;28;20665;-62
2022/05/05 07:35:11;;;;;;;3.10;2.17;;;15.20;98.00;;;;;;5009228;28;20480;-62
2022/05/05 07:37:39;;;;;;;3.47;2.33;;;15.20;98.00;;;;;;5009419;28;20549;-63
2022/05/05 07:40:09;;;;;;;3.50;2.33;;;15.10;98.00;;;;;;5009087;28;21010;-62
2022/05/05 07:42:37;;;;;;;1.90;1.80;;;15.00;98.00;;;;;;5009106;28;20959;-63
2022/05/05 07:45:05;;;;;;;1.90;1.80;;;15.20;98.00;;;;;;5009074;28;20457;-62
2022/05/05 07:47:33;;;;;;;3.33;2.50;;;15.30;98.00;;;;;;5009084;28;20528;-62
2022/05/05 07:50:02;;;;;;;3.00;2.20;;;15.40;98.00;;;;;;5007141;28;20454;-61
2022/05/05 07:52:30;;;;;;;3.37;2.40;;;15.40;98.00;;;;;;5008700;28;20448;-62
2022/05/05 07:54:58;;;;;;;5.77;2.27;;;15.40;98.00;;;;;;5010188;28;20454;-62
2022/05/05 07:57:31;;;;;;;2.80;2.43;;;15.20;98.00;;;;;;5011089;28;20956;-63
2022/05/05 07:59:58;;;;;;;3.00;2.40;;;15.10;98.00;;;;;;5010991;28;20768;-62
2022/05/05 08:02:28;;;;;;;3.37;2.60;;;15.20;98.00;;;;;;5010299;28;20466;-62
2022/05/05 08:04:55;;;;;;;2.13;1.97;;;15.10;98.00;;;;;;5011118;28;20469;-63
2022/05/05 08:07:23;;;;;;;2.30;1.83;;;15.10;98.00;;;;;;5011338;28;21002;-62
2022/05/05 08:09:50;;;;;;;3.27;2.63;;;15.20;98.00;;;;;;5011653;28;20512;-63
2022/05/05 08:12:17;;;;;;;3.97;2.63;;;15.30;98.00;;;;;;5010074;28;20460;-62
2022/05/05 08:14:44;;;;;;;2.90;2.57;;;15.30;98.00;;;;;;5011327;28;20470;-62
2022/05/05 08:17:12;;;;;;;2.87;2.50;;;15.20;98.00;;;;;;5010051;28;20457;-62
2022/05/05 08:19:40;;;;;;;4.30;2.40;;;15.20;98.00;;;;;;5011393;28;20493;-62
2022/05/05 08:22:07;;;;;;;2.27;2.00;;;15.10;98.00;;;;;;5010267;28;20458;-62
2022/05/05 08:30:04;;;;;;;2.47;2.10;;;15.00;98.00;;;;;;5011418;28;20471;-62
2022/05/05 08:32:31;;;;;;;3.70;2.20;;;15.00;98.00;;;;;;5010952;28;20869;-62
2022/05/05 08:34:58;;;;;;;3.33;1.83;;;15.00;98.00;;;;;;5011871;28;20743;-61
2022/05/05 08:37:25;;;;;;;2.40;2.27;;;15.10;98.00;;;;;;5014695;28;21010;-62
2022/05/05 08:39:54;;;;;;;2.70;2.10;;;15.20;98.00;;;;;;5014656;28;20484;-62
2022/05/05 08:42:21;;;;;;;3.17;2.60;;;15.30;98.00;;;;;;5014451;28;20516;-63
2022/05/05 08:44:48;;;;;;;4.23;2.87;;;15.40;98.00;;;;;;5014619;28;20472;-62
2022/05/05 08:47:17;;;;;;;4.07;3.07;;;15.40;98.00;;;;;;5014198;28;20527;-62
2022/05/05 08:49:45;;;;;;;3.83;2.73;;;15.40;98.00;;;;;;5014359;28;20869;-62
2022/05/05 08:52:14;;;;;;;4.30;2.83;;;15.50;98.00;;;;;;5014271;28;20473;-62
2022/05/05 08:54:42;;;;;;;3.37;2.43;;;15.50;98.00;;;;;;5014352;28;20463;-62
2022/05/05 08:57:11;;;;;;;2.87;2.37;;;15.30;98.00;;;;;;5014289;28;20467;-62
2022/05/05 08:59:39;;;;;;;5.13;3.13;;;15.30;98.00;;;;;;5014355;28;20492;-62
2022/05/05 09:02:06;;;;;;;4.00;2.80;;;15.40;98.00;;;;;;5014045;28;20503;-62
2022/05/05 09:04:34;;;;;;;3.90;2.90;;;15.40;98.00;;;;;;5014169;28;20454;-62
2022/05/05 09:07:01;;;;;;;3.97;2.63;;;15.50;98.00;;;;;;5014037;28;20485;-62
2022/05/05 09:09:31;;;;;;;2.77;2.43;;;15.60;98.00;;;;;;5014242;28;20457;-62
2022/05/05 09:12:16;;;;;;;2.37;2.20;;;15.70;98.00;;;;;;5013925;28;20534;-62
2022/05/05 09:14:46;;;;;;;3.17;2.33;;;15.80;98.00;;;;;;5013958;28;20951;-62
2022/05/05 09:17:15;;;;;;;4.67;2.90;;;15.70;98.00;;;;;;5013817;28;20836;-61
2022/05/05 09:19:44;;;;;;;3.03;2.83;;;15.80;98.00;;;;;;5013768;28;21020;-61
2022/05/05 09:22:12;;;;;;;3.07;2.70;;;15.80;98.00;;;;;;5014304;28;20529;-62
2022/05/05 09:24:43;;;;;;;4.80;3.33;;;15.80;98.00;;;;;;5014049;28;21043;-62
2022/05/05 09:27:24;;;;;;;5.07;2.60;;;16.00;98.00;;;;;;5014062;28;20822;-63
2022/05/05 09:30:18;;;;;;;6.50;3.00;;;16.00;98.00;;;;;;5014351;28;20890;-63
2022/05/05 09:32:47;;;;;;;4.23;3.10;;;16.20;98.00;;;;;;5013955;28;20477;-63
2022/05/05 09:35:15;;;;;;;2.60;2.30;;;16.30;98.00;;;;;;5014218;28;20460;-62
2022/05/05 09:37:48;;;;;;;4.77;2.80;;;16.40;98.00;;;;;;5016619;28;20568;-63
2022/05/05 09:40:18;;;;;;;5.13;3.27;;;16.50;98.00;;;;;;5032527;28;20988;-63
2022/05/05 09:42:49;;;;;;;3.57;2.50;;;16.40;98.00;;;;;;5033792;28;20454;-63
2022/05/05 09:45:21;;;;;;;2.80;2.50;;;16.30;98.00;;;;;;5017893;28;20455;-63
2022/05/05 09:47:50;;;;;;;5.90;3.23;;;16.20;98.00;;;;;;5013421;28;20861;-63
2022/05/05 09:50:20;;;;;;;7.80;3.40;;;16.20;98.00;;;;;;5013670;28;20501;-63
2022/05/05 09:58:22;;;;;;;6.40;2.70;;;16.00;98.00;;;;;;5012749;28;20441;-63
2022/05/05 10:00:58;;;;;;;3.33;2.63;;;16.00;98.00;;;;;;5013048;28;20530;-62
2022/05/05 10:06:18;;;;;;;5.10;2.80;;;16.20;98.00;;;;;;5012981;28;20440;-63
2022/05/05 10:08:50;;;;;;;4.90;2.97;;;16.20;98.00;;;;;;5013120;28;20789;-62
2022/05/05 10:11:19;;;;;;;4.27;3.47;;;16.20;98.00;;;;;;5014051;28;20775;-63
2022/05/05 10:13:49;;;;;;;4.50;3.17;;;16.00;98.00;;;;;;5013663;28;20466;-63
2022/05/05 10:16:16;;;;;;;3.93;2.73;;;15.90;98.00;;;;;;5013501;28;20478;-63
2022/05/05 10:18:43;;;;;;;2.90;2.60;;;16.00;98.00;;;;;;5013200;28;20465;-63
2022/05/05 10:21:22;;;;;;;4.37;3.50;;;16.10;98.00;;;;;;5013287;28;20501;-63
2022/05/05 10:23:58;;;;;;;3.07;2.60;;;16.20;98.00;;;;;;5013175;28;20466;-62
2022/05/05 10:26:29;;;;;;;2.97;2.10;;;16.20;98.00;;;;;;5013324;28;20474;-63
2022/05/05 10:28:58;;;;;;;4.27;3.40;;;16.40;98.00;;;;;;5013189;28;20464;-63
2022/05/05 10:31:45;;;;;;;4.90;3.20;;;16.50;98.00;;;;;;5011526;28;20466;-62
2022/05/05 10:34:18;;;;;;;6.63;3.70;;;16.70;98.00;;;;;;5012922;28;20461;-62
2022/05/05 10:37:03;;;;;;;7.00;3.70;;;16.70;98.00;;;;;;5013114;28;20585;-62
2022/05/05 10:39:47;;;;;;;5.10;3.33;;;16.60;98.00;;;;;;5012305;28;20465;-62
2022/05/05 10:42:19;;;;;;;5.47;3.77;;;16.70;98.00;;;;;;5012105;28;20462;-63
2022/05/05 10:45:14;;;;;;;5.27;3.53;;;16.90;98.00;;;;;;5012332;28;20458;-62
2022/05/05 10:48:31;;;;;;;5.03;3.33;;;17.00;98.00;;;;;;5012643;28;20807;-63
2022/05/05 10:51:07;;;;;;;3.83;2.87;;;17.00;98.00;;;;;;5012271;28;21036;-63
2022/05/05 10:53:40;;;;;;;5.50;3.33;;;17.10;98.00;;;;;;5012071;28;20462;-63
2022/05/05 10:56:27;;;;;;;4.40;2.73;;;17.10;98.00;;;;;;5012057;28;20550;-63
2022/05/05 10:59:13;;;;;;;3.60;2.60;;;17.20;98.00;;;;;;5011413;28;20501;-63
2022/05/05 11:02:01;;;;;;;7.50;3.83;;;17.40;98.00;;;;;;5011960;28;20487;-62
2022/05/05 11:04:32;;;;;;;6.60;4.13;;;17.40;98.00;;;;;;5011938;28;20497;-63
2022/05/05 11:07:31;;;;;;;5.10;3.23;;;17.40;98.00;;;;;;5011980;28;20498;-63
2022/05/05 11:10:00;;;;;;;6.57;3.67;;;17.40;98.00;;;;;;4951329;28;20498;-62
2022/05/05 11:12:34;;;;;;;5.80;3.97;;;17.40;98.00;;;;;;4994813;28;20506;-63
2022/05/05 11:23:47;;;;;;;9.93;4.30;;;17.20;98.00;;;;;;5011961;28;20494;-63
2022/05/05 11:26:18;;;;;;;6.57;4.30;;;17.00;98.00;;;;;;5011624;28;20459;-63
2022/05/05 11:28:48;;;;;;;7.00;3.67;;;17.10;98.00;;;;;;5011415;28;20517;-63
2022/05/05 11:31:22;;;;;;;7.60;3.50;;;17.20;98.00;;;;;;5011245;28;20475;-62
2022/05/05 11:33:53;;;;;;;6.23;3.43;;;17.20;98.00;;;;;;5011589;28;20474;-66
2022/05/05 11:36:21;;;;;;;4.43;2.73;;;17.20;98.00;;;;;;5011625;28;20459;-62
2022/05/05 11:38:48;;;;;;;5.20;3.90;;;17.20;98.00;;;;;;5011407;28;20550;-63
2022/05/05 11:41:19;;;;;;;8.40;4.20;;;17.30;98.00;;;;;;5011286;28;20895;-62
2022/05/05 11:46:32;;;;;;;7.67;3.50;;;17.30;98.00;;;;;;5011776;28;20446;-61
2022/05/05 11:49:01;;;;;;;7.10;4.20;;;17.40;98.00;;;;;;5011477;28;20498;-62
2022/05/05 11:51:29;;;;;;;5.93;3.73;;;17.50;98.00;;;;;;5011487;28;20447;-62
2022/05/05 11:54:05;;;;;;;4.80;3.20;;;17.50;98.00;;;;;;5011315;28;20466;-62
2022/05/05 11:56:34;;;;;;;7.97;4.70;;;17.60;98.00;;;;;;5011622;28;20493;-62
2022/05/05 12:02:00;;;;;;;5.60;3.20;;;17.80;98.00;;;;;;5011569;28;20637;-62
2022/05/05 12:04:30;;;;;;;7.60;3.70;;;17.80;98.00;;;;;;5011672;28;20513;-62
2022/05/05 12:06:59;;;;;;;5.83;3.17;;;17.80;98.00;;;;;;5011351;28;20495;-62
2022/05/05 12:09:26;;;;;;;5.40;3.13;;;17.90;98.00;;;;;;5011205;28;20557;-62
2022/05/05 12:11:54;;;;;;;5.90;4.07;;;18.00;98.00;;;;;;5014185;28;20462;-62
2022/05/05 12:14:23;;;;;;;4.30;3.13;;;18.20;98.00;;;;;;5015172;28;20545;-62
2022/05/05 12:16:51;;;;;;;8.77;4.00;;;18.20;98.00;;;;;;5015256;28;20459;-62
2022/05/05 12:19:21;;;;;;;8.50;4.07;;;18.30;98.00;;;;;;5015283;28;20983;-62
2022/05/05 12:21:54;;;;;;;6.07;3.53;;;18.40;98.00;;;;;;5014953;28;20490;-62
2022/05/05 12:24:23;;;;;;;4.70;3.20;;;18.40;98.00;;;;;;5015063;28;20466;-62
2022/05/05 12:26:51;;;;;;;6.40;3.90;;;18.50;98.00;;;;;;5014986;28;20455;-62
2022/05/05 12:29:20;;;;;;;10.43;4.10;;;18.40;98.00;;;;;;5014748;28;20459;-62
2022/05/05 12:31:55;;;;;;;8.03;4.03;;;18.20;98.00;;;;;;5014626;28;20471;-62
2022/05/05 12:34:28;;;;;;;6.20;3.60;;;18.20;98.00;;;;;;5014689;28;20539;-62
2022/05/05 12:37:18;;;;;;;7.50;4.33;;;18.00;98.00;;;;;;5014985;28;20451;-62
2022/05/05 12:39:57;;;;;;;5.50;3.60;;;18.00;98.00;;;;;;5014878;28;20539;-62
2022/05/05 12:42:25;;;;;;;6.57;3.63;;;18.00;98.00;;;;;;5014550;28;20933;-62
2022/05/05 12:44:52;;;;;;;5.87;4.10;;;18.10;98.00;;;;;;5013524;28;20458;-62
2022/05/05 12:47:24;;;;;;;6.60;4.20;;;18.20;98.00;;;;;;5014468;28;20512;-62
2022/05/05 12:49:51;;;;;;;7.30;4.43;;;18.30;98.00;;;;;;5014446;28;20541;-62
2022/05/05 13:00:53;;;;;;;6.07;3.33;;;19.50;98.00;;;;;;5014382;28;20526;-62
2022/05/05 13:03:21;;;;;;;4.77;3.23;;;19.80;98.00;;;;;;5014408;28;20455;-62
2022/05/05 13:05:49;;;;;;;5.80;4.00;;;19.90;98.00;;;;;;5014326;28;20487;-62
2022/05/05 13:08:18;;;;;;;8.60;4.10;;;19.90;98.00;;;;;;5014121;28;20499;-62
2022/05/05 13:10:45;;;;;;;5.10;3.00;;;20.00;98.00;;;;;;5014212;28;20518;-62
2022/05/05 13:13:13;;;;;;;6.53;3.73;;;20.20;98.00;;;;;;5014370;28;20459;-62
2022/05/05 13:15:41;;;;;;;8.13;4.70;;;20.50;98.00;;;;;;5014365;28;20460;-62
2022/05/05 13:18:09;;;;;;;8.10;4.57;;;20.30;98.00;;;;;;5014084;28;20467;-62
2022/05/05 13:20:36;;;;;;;6.40;4.13;;;19.80;98.00;;;;;;5013418;28;20826;-62
2022/05/05 13:23:03;;;;;;;7.47;3.80;;;19.70;98.00;;;;;;5012336;28;20534;-62
2022/05/05 13:25:32;;;;;;;6.80;3.43;;;19.40;98.00;;;;;;5013683;28;20456;-62
2022/05/05 13:28:00;;;;;;;7.83;4.33;;;19.20;98.00;;;;;;5013456;28;20455;-62
2022/05/05 13:30:27;;;;;;;7.77;4.73;;;19.30;98.00;;;;;;5013544;28;20464;-62
2022/05/05 13:32:55;;;;;;;7.70;4.10;;;19.30;98.00;;;;;;5013652;28;20472;-62
2022/05/05 13:35:22;;;;;;;7.67;4.27;;;19.50;98.00;;;;;;5013497;28;20456;-62
2022/05/05 13:37:49;;;;;;;6.43;3.40;;;19.70;98.00;;;;;;5013671;28;20863;-62
2022/05/05 13:40:16;;;;;;;6.90;3.90;;;19.60;98.00;;;;;;5013518;28;20572;-62
2022/05/05 13:42:45;;;;;;;5.60;3.90;;;19.50;98.00;;;;;;5013322;28;20499;-62
2022/05/05 13:45:12;;;;;;;9.53;3.73;;;19.40;98.00;;;;;;5013282;28;20467;-62
2022/05/05 13:47:39;;;;;;;4.63;3.10;;;19.30;98.00;;;;;;5013473;28;20467;-62
2022/05/05 13:50:07;;;;;;;7.67;3.60;;;19.20;98.00;;;;;;5013592;28;20470;-62